< Typhoon 199125 1991 Season Typhoon 199127 >
Typhoon 199126 (VERNE)
General InformationTrack Information on Google MapsDetailed Wind InformationList of All Images || Disaster Info.ResourceGoogle EarthGE AnimationAtom FeedGeoJSON
Detalied Best Track (Time Zone = UTC)
Year Month Day Hour Lat. Long. Pressure (hPa) Wind (kt) Class Image Chart
1991 11 5 06 8.0 165.0 1004 0 2 Image Chart
1991 11 5 12 8.7 163.0 1004 0 2 Image Chart
1991 11 5 18 9.8 161.0 1004 0 2 Image Chart
1991 11 6 00 11.0 159.0 1004 0 2 Image Chart
1991 11 6 06 11.9 157.5 1002 0 2 Image Chart
1991 11 6 12 12.8 155.9 1002 0 2 Image Chart
1991 11 6 18 13.5 155.0 1000 0 2 Image Chart
1991 11 7 00 14.0 154.3 1000 0 2 Image Chart
1991 11 7 06 14.3 153.7 1000 0 2 Image Chart
1991 11 7 12 14.6 153.1 998 35 3 Image Chart
1991 11 7 18 14.8 152.5 992 45 3 Image Chart
1991 11 8 00 15.2 151.8 985 50 4 Image Chart
1991 11 8 06 15.5 151.2 985 50 4 Image Chart
1991 11 8 12 15.9 150.4 985 50 4 Image Chart
1991 11 8 18 16.3 149.7 980 55 4 Image Chart
1991 11 9 00 16.6 149.1 980 55 4 Image Chart
1991 11 9 06 16.9 148.4 980 55 4 Image Chart
1991 11 9 12 17.2 147.6 980 55 4 Image Chart
1991 11 9 18 17.7 146.7 985 50 4 Image Chart
1991 11 10 00 18.2 145.7 985 50 4 Image Chart
1991 11 10 06 19.1 144.3 985 50 4 Image Chart
1991 11 10 12 19.8 143.2 985 50 4 Image Chart
1991 11 10 18 20.7 142.2 985 50 4 Image Chart
1991 11 11 00 21.6 141.5 990 45 3 Image Chart
1991 11 11 06 22.8 141.4 990 45 3 Image Chart
1991 11 11 12 23.7 141.6 990 45 3 Image Chart
1991 11 11 15 24.3 142.0 990 45 3 Image Chart
1991 11 11 18 24.9 143.0 992 45 3 Image Chart
1991 11 11 21 25.4 144.2 994 45 3 Image Chart
1991 11 12 00 26.0 145.4 996 40 3 Image Chart
1991 11 12 06 27.2 147.6 998 40 3 Image Chart
1991 11 12 12 29.0 151.0 1002 0 6 Image Chart
1991 11 12 18 31.0 155.0 1002 0 6 Image Chart
1991 11 13 00 32.0 158.0 1004 0 6 Image Chart
1991 11 13 06 34.0 164.0 1004 0 6 Image Chart
1991 11 13 12 34.0 170.0 1004 0 6 Image Chart
1991 11 13 18 35.0 175.0 1004 0 6 Image Chart
Japan Meteorological Agency Best Track Data | Correction Date : 1992-01-04
< Typhoon 199125 1991 Season Typhoon 199127 >

Help